SVW26C KPIE-KPBI
Flight info
| Callsign | SVW26C |
|---|---|
| Flight time | 0h 30m |
| Altitude | 21000 |
| Route | CROWD LBV013021 VUUDU VUUDU1 |
| Aircraft | B737/M-SDE2E3FGHIRWXY/LB1 |
Departure
| Time | 2026-04-28 15:42 |
|---|---|
| Airport | St. Petersburg Clearwater International Airport (KPIE) |
Arrival
| Time | 2026-04-28 16:12 |
|---|---|
| Airport | Palm Beach International Airport (KPBI) |
| Time | Latitude | Longitude | Altitude | Speed | Heading |
|---|---|---|---|---|---|
| 2026-04-28 15:26 | 27.91540 | -82.69189 | 26 ft | 0 kts | 257° |
| 2026-04-28 15:37 | 27.91539 | -82.69190 | 26 ft | 1 kts | 257° |
| 2026-04-28 15:37 | 27.91521 | -82.69215 | 24 ft | 8 kts | 200° |
| 2026-04-28 15:37 | 27.91454 | -82.69181 | 26 ft | 13 kts | 127° |
| 2026-04-28 15:38 | 27.91431 | -82.69078 | 25 ft | 14 kts | 134° |
| 2026-04-28 15:38 | 27.91330 | -82.69054 | 23 ft | 16 kts | 171° |
| 2026-04-28 15:38 | 27.91214 | -82.69032 | 24 ft | 18 kts | 170° |
| 2026-04-28 15:38 | 27.91078 | -82.69008 | 24 ft | 21 kts | 172° |
| 2026-04-28 15:39 | 27.90926 | -82.68983 | 26 ft | 23 kts | 171° |
| 2026-04-28 15:39 | 27.90757 | -82.68953 | 23 ft | 26 kts | 171° |
| 2026-04-28 15:39 | 27.90581 | -82.68922 | 24 ft | 25 kts | 171° |
| 2026-04-28 15:39 | 27.90418 | -82.68893 | 23 ft | 23 kts | 171° |
| 2026-04-28 15:40 | 27.90263 | -82.68866 | 26 ft | 22 kts | 172° |
| 2026-04-28 15:40 | 27.90105 | -82.68858 | 21 ft | 24 kts | 182° |
| 2026-04-28 15:40 | 27.89929 | -82.68863 | 21 ft | 25 kts | 174° |
| 2026-04-28 15:40 | 27.89764 | -82.68835 | 27 ft | 21 kts | 171° |
| 2026-04-28 15:41 | 27.89694 | -82.68753 | 22 ft | 16 kts | 84° |
| 2026-04-28 15:41 | 27.89719 | -82.68627 | 18 ft | 12 kts | 45° |
| 2026-04-28 15:41 | 27.89825 | -82.68632 | 18 ft | 37 kts | 351° |
| 2026-04-28 15:41 | 27.90392 | -82.68729 | 25 ft | 124 kts | 352° |
| 2026-04-28 15:42 | 27.91399 | -82.68924 | 428 ft | 158 kts | 352° |
| 2026-04-28 15:42 | 27.92466 | -82.69168 | 1198 ft | 156 kts | 350° |
| 2026-04-28 15:42 | 27.93579 | -82.69506 | 1554 ft | 182 kts | 335° |
| 2026-04-28 15:42 | 27.94483 | -82.70506 | 1580 ft | 185 kts | 295° |
| 2026-04-28 15:43 | 27.94716 | -82.71979 | 1716 ft | 199 kts | 274° |
| 2026-04-28 15:43 | 27.94793 | -82.73601 | 2573 ft | 210 kts | 273° |
| 2026-04-28 15:43 | 27.94812 | -82.75248 | 3895 ft | 212 kts | 260° |
| 2026-04-28 15:43 | 27.94176 | -82.76749 | 5200 ft | 217 kts | 227° |
| 2026-04-28 15:44 | 27.92896 | -82.77661 | 6336 ft | 228 kts | 194° |
| 2026-04-28 15:44 | 27.91317 | -82.77684 | 7459 ft | 231 kts | 161° |
| 2026-04-28 15:44 | 27.89938 | -82.76779 | 8516 ft | 231 kts | 128° |
| 2026-04-28 15:44 | 27.89069 | -82.75243 | 9519 ft | 240 kts | 110° |
| 2026-04-28 15:45 | 27.88426 | -82.73366 | 9990 ft | 275 kts | 103° |
| 2026-04-28 15:45 | 27.87832 | -82.71165 | 10368 ft | 312 kts | 102° |
| 2026-04-28 15:45 | 27.87186 | -82.68671 | 10646 ft | 347 kts | 103° |
| 2026-04-28 15:45 | 27.86490 | -82.66035 | 11397 ft | 360 kts | 103° |
| 2026-04-28 15:46 | 27.85750 | -82.63306 | 12421 ft | 366 kts | 104° |
| 2026-04-28 15:46 | 27.84989 | -82.60543 | 13447 ft | 371 kts | 104° |
| 2026-04-28 15:46 | 27.84206 | -82.57732 | 14375 ft | 378 kts | 105° |
| 2026-04-28 15:46 | 27.83404 | -82.54875 | 15272 ft | 384 kts | 105° |
| 2026-04-28 15:47 | 27.82590 | -82.51984 | 16214 ft | 388 kts | 105° |
| 2026-04-28 15:47 | 27.81766 | -82.49063 | 17145 ft | 393 kts | 105° |
| 2026-04-28 15:47 | 27.80930 | -82.46105 | 18045 ft | 398 kts | 105° |
| 2026-04-28 15:47 | 27.80082 | -82.43103 | 18857 ft | 403 kts | 105° |
| 2026-04-28 15:48 | 27.79222 | -82.40063 | 19595 ft | 408 kts | 105° |
| 2026-04-28 15:48 | 27.78350 | -82.36987 | 20343 ft | 413 kts | 105° |
| 2026-04-28 15:48 | 27.77469 | -82.33876 | 21091 ft | 418 kts | 105° |
| 2026-04-28 15:48 | 27.76574 | -82.30719 | 21797 ft | 424 kts | 105° |
| 2026-04-28 15:49 | 27.75681 | -82.27570 | 22491 ft | 430 kts | 105° |
| 2026-04-28 15:49 | 27.74750 | -82.24293 | 23180 ft | 435 kts | 105° |
| 2026-04-28 15:49 | 27.73830 | -82.21059 | 23825 ft | 440 kts | 105° |
| 2026-04-28 15:49 | 27.72886 | -82.17744 | 24376 ft | 445 kts | 105° |
| 2026-04-28 15:50 | 27.71934 | -82.14406 | 24941 ft | 449 kts | 105° |
| 2026-04-28 15:50 | 27.70971 | -82.11028 | 25157 ft | 455 kts | 105° |
| 2026-04-28 15:50 | 27.69990 | -82.07592 | 25193 ft | 466 kts | 105° |
| 2026-04-28 15:50 | 27.68983 | -82.04066 | 25200 ft | 476 kts | 105° |
| 2026-04-28 15:51 | 27.67959 | -82.00489 | 25198 ft | 483 kts | 105° |
| 2026-04-28 15:51 | 27.66680 | -81.96944 | 25185 ft | 492 kts | 114° |
| 2026-04-28 15:51 | 27.64928 | -81.93594 | 25188 ft | 499 kts | 123° |
| 2026-04-28 15:51 | 27.62744 | -81.90521 | 25196 ft | 504 kts | 128° |
| 2026-04-28 15:52 | 27.60483 | -81.87555 | 25176 ft | 505 kts | 129° |
| 2026-04-28 15:52 | 27.58169 | -81.84563 | 25174 ft | 505 kts | 129° |
| 2026-04-28 15:52 | 27.55864 | -81.81577 | 25173 ft | 505 kts | 129° |
| 2026-04-28 15:52 | 27.53570 | -81.78582 | 25179 ft | 505 kts | 129° |
| 2026-04-28 15:53 | 27.51284 | -81.75572 | 25175 ft | 504 kts | 128° |
| 2026-04-28 15:53 | 27.49011 | -81.72562 | 25181 ft | 504 kts | 128° |
| 2026-04-28 15:53 | 27.46739 | -81.69545 | 25174 ft | 504 kts | 128° |
| 2026-04-28 15:53 | 27.44474 | -81.66533 | 25182 ft | 504 kts | 128° |
| 2026-04-28 15:54 | 27.42206 | -81.63521 | 25184 ft | 504 kts | 128° |
| 2026-04-28 15:54 | 27.39940 | -81.60513 | 25179 ft | 504 kts | 128° |
| 2026-04-28 15:54 | 27.37670 | -81.57505 | 25179 ft | 504 kts | 128° |
| 2026-04-28 15:54 | 27.35432 | -81.54540 | 25179 ft | 503 kts | 128° |
| 2026-04-28 15:55 | 27.33164 | -81.51540 | 25180 ft | 503 kts | 128° |
| 2026-04-28 15:55 | 27.30892 | -81.48537 | 25177 ft | 503 kts | 128° |
| 2026-04-28 15:55 | 27.28626 | -81.45544 | 25174 ft | 503 kts | 128° |
| 2026-04-28 15:55 | 27.26353 | -81.42543 | 25173 ft | 503 kts | 128° |
| 2026-04-28 15:56 | 27.24085 | -81.39551 | 25175 ft | 503 kts | 128° |
| 2026-04-28 15:56 | 27.21811 | -81.36554 | 25176 ft | 503 kts | 128° |
| 2026-04-28 15:56 | 27.19541 | -81.33562 | 25167 ft | 503 kts | 128° |
| 2026-04-28 15:56 | 27.17270 | -81.30572 | 25167 ft | 503 kts | 128° |
| 2026-04-28 15:57 | 27.14994 | -81.27578 | 25174 ft | 503 kts | 128° |
| 2026-04-28 15:57 | 27.12721 | -81.24590 | 25172 ft | 503 kts | 128° |
| 2026-04-28 15:57 | 27.10445 | -81.21601 | 25167 ft | 502 kts | 128° |
| 2026-04-28 15:57 | 27.08227 | -81.18689 | 25156 ft | 492 kts | 128° |
| 2026-04-28 15:58 | 27.06012 | -81.15788 | 25059 ft | 473 kts | 128° |
| 2026-04-28 15:58 | 27.03913 | -81.13039 | 24239 ft | 467 kts | 128° |
| 2026-04-28 15:58 | 27.01805 | -81.10276 | 23073 ft | 465 kts | 128° |
| 2026-04-28 15:58 | 26.99712 | -81.07532 | 21833 ft | 462 kts | 128° |
| 2026-04-28 15:59 | 26.97630 | -81.04805 | 20662 ft | 458 kts | 128° |
| 2026-04-28 15:59 | 26.96235 | -81.02979 | 19937 ft | 454 kts | 128° |
| 2026-04-28 15:59 | 26.93543 | -80.99459 | 18660 ft | 444 kts | 128° |
| 2026-04-28 15:59 | 26.91549 | -80.96854 | 17626 ft | 437 kts | 128° |
| 2026-04-28 16:00 | 26.89582 | -80.94287 | 16572 ft | 430 kts | 128° |
| 2026-04-28 16:00 | 26.87644 | -80.91756 | 15539 ft | 425 kts | 128° |
| 2026-04-28 16:00 | 26.85731 | -80.89259 | 14540 ft | 420 kts | 128° |
| 2026-04-28 16:00 | 26.83840 | -80.86794 | 13545 ft | 415 kts | 128° |
| 2026-04-28 16:01 | 26.81987 | -80.84382 | 12729 ft | 396 kts | 128° |
| 2026-04-28 16:01 | 26.80465 | -80.81967 | 12207 ft | 364 kts | 112° |
| 2026-04-28 16:01 | 26.79739 | -80.79400 | 11897 ft | 331 kts | 96° |
| 2026-04-28 16:01 | 26.79599 | -80.76936 | 11623 ft | 305 kts | 88° |
| 2026-04-28 16:02 | 26.79263 | -80.74634 | 11093 ft | 300 kts | 105° |
| 2026-04-28 16:02 | 26.78536 | -80.72458 | 10521 ft | 299 kts | 108° |
| 2026-04-28 16:02 | 26.77793 | -80.70317 | 10314 ft | 289 kts | 107° |
| 2026-04-28 16:02 | 26.77075 | -80.68233 | 9846 ft | 289 kts | 107° |
| 2026-04-28 16:03 | 26.76360 | -80.66113 | 9254 ft | 293 kts | 107° |
| 2026-04-28 16:03 | 26.75647 | -80.63977 | 8790 ft | 292 kts | 108° |
| 2026-04-28 16:03 | 26.74950 | -80.61887 | 8382 ft | 288 kts | 108° |
| 2026-04-28 16:03 | 26.74251 | -80.59789 | 7960 ft | 287 kts | 108° |
| 2026-04-28 16:04 | 26.73549 | -80.57705 | 7524 ft | 285 kts | 109° |
| 2026-04-28 16:04 | 26.72837 | -80.55666 | 6956 ft | 279 kts | 109° |
| 2026-04-28 16:04 | 26.72125 | -80.53637 | 6281 ft | 280 kts | 110° |
| 2026-04-28 16:04 | 26.71423 | -80.51635 | 5800 ft | 274 kts | 110° |
| 2026-04-28 16:05 | 26.70728 | -80.49653 | 5366 ft | 273 kts | 110° |
| 2026-04-28 16:05 | 26.70144 | -80.47628 | 4986 ft | 274 kts | 95° |
| 2026-04-28 16:05 | 26.70213 | -80.45529 | 4797 ft | 270 kts | 84° |
| 2026-04-28 16:05 | 26.70398 | -80.43437 | 4574 ft | 269 kts | 83° |
| 2026-04-28 16:06 | 26.70588 | -80.41363 | 4382 ft | 268 kts | 83° |
| 2026-04-28 16:06 | 26.70775 | -80.39294 | 4175 ft | 267 kts | 83° |
| 2026-04-28 16:06 | 26.70954 | -80.37235 | 3992 ft | 265 kts | 83° |
| 2026-04-28 16:06 | 26.71129 | -80.35187 | 3795 ft | 265 kts | 84° |
| 2026-04-28 16:07 | 26.71300 | -80.33147 | 3590 ft | 260 kts | 84° |
| 2026-04-28 16:07 | 26.71464 | -80.31174 | 3399 ft | 250 kts | 83° |
| 2026-04-28 16:07 | 26.71803 | -80.27445 | 3028 ft | 235 kts | 78° |
| 2026-04-28 16:08 | 26.72236 | -80.25700 | 2726 ft | 230 kts | 71° |
| 2026-04-28 16:08 | 26.72720 | -80.24052 | 2481 ft | 216 kts | 71° |
| 2026-04-28 16:08 | 26.73171 | -80.22492 | 2229 ft | 206 kts | 71° |
| 2026-04-28 16:09 | 26.73989 | -80.19575 | 1864 ft | 192 kts | 72° |
| 2026-04-28 16:09 | 26.74284 | -80.18128 | 1678 ft | 185 kts | 83° |
| 2026-04-28 16:09 | 26.74188 | -80.16773 | 1498 ft | 167 kts | 102° |
| 2026-04-28 16:10 | 26.73138 | -80.14822 | 1109 ft | 133 kts | 128° |
| 2026-04-28 16:10 | 26.72514 | -80.14089 | 945 ft | 128 kts | 130° |
| 2026-04-28 16:10 | 26.71272 | -80.12713 | 724 ft | 125 kts | 131° |
| 2026-04-28 16:11 | 26.70056 | -80.11378 | 302 ft | 122 kts | 131° |
| 2026-04-28 16:11 | 26.68841 | -80.10020 | 24 ft | 115 kts | 133° |
| 2026-04-28 16:12 | 26.68188 | -80.09304 | 23 ft | 17 kts | 148° |
| 2026-04-28 16:12 | 26.68148 | -80.09324 | 21 ft | 7 kts | 264° |
| 2026-04-28 16:13 | 26.68118 | -80.09454 | 21 ft | 7 kts | 160° |
| 2026-04-28 16:13 | 26.68079 | -80.09405 | 21 ft | 12 kts | 128° |
| 2026-04-28 16:13 | 26.68023 | -80.09439 | 21 ft | 6 kts | 271° |
| 2026-04-28 16:14 | 26.68009 | -80.09525 | 22 ft | 8 kts | 206° |
| 2026-04-28 16:14 | 26.67983 | -80.09502 | 21 ft | 0 kts | 81° |
| 2026-04-28 16:15 | 26.67980 | -80.09461 | 21 ft | 2 kts | 93° |
| 2026-04-28 16:15 | 26.67980 | -80.09459 | 21 ft | 0 kts | 93° |